sensor_id;sensor_type;location;lat;lon;timestamp;temperature;humidity
12911;DHT22;6523;49.758;6.120;2023-06-22T00:00:51;20.00;99.90
12911;DHT22;6523;49.758;6.120;2023-06-22T00:03:18;19.90;99.90
12911;DHT22;6523;49.758;6.120;2023-06-22T00:05:45;20.00;99.90
12911;DHT22;6523;49.758;6.120;2023-06-22T00:08:11;20.10;99.90
12911;DHT22;6523;49.758;6.120;2023-06-22T00:10:37;20.10;99.90
12911;DHT22;6523;49.758;6.120;2023-06-22T00:13:03;20.10;99.90
12911;DHT22;6523;49.758;6.120;2023-06-22T00:15:28;20.00;99.90
12911;DHT22;6523;49.758;6.120;2023-06-22T00:17:54;20.10;99.90
12911;DHT22;6523;49.758;6.120;2023-06-22T00:20:19;20.00;99.90
12911;DHT22;6523;49.758;6.120;2023-06-22T00:22:45;20.00;99.90
12911;DHT22;6523;49.758;6.120;2023-06-22T00:25:11;20.00;99.90
12911;DHT22;6523;49.758;6.120;2023-06-22T00:27:37;20.00;99.90
12911;DHT22;6523;49.758;6.120;2023-06-22T00:30:03;20.10;99.90
12911;DHT22;6523;49.758;6.120;2023-06-22T00:32:28;20.20;99.90
12911;DHT22;6523;49.758;6.120;2023-06-22T00:34:54;20.20;99.90
12911;DHT22;6523;49.758;6.120;2023-06-22T00:37:20;20.10;99.90
12911;DHT22;6523;49.758;6.120;2023-06-22T00:39:48;20.10;99.90
12911;DHT22;6523;49.758;6.120;2023-06-22T00:42:14;20.10;99.90
12911;DHT22;6523;49.758;6.120;2023-06-22T00:44:39;20.10;99.90
12911;DHT22;6523;49.758;6.120;2023-06-22T00:47:06;20.00;99.90
12911;DHT22;6523;49.758;6.120;2023-06-22T00:49:32;20.10;99.90
12911;DHT22;6523;49.758;6.120;2023-06-22T00:51:57;20.00;99.90
12911;DHT22;6523;49.758;6.120;2023-06-22T00:54:24;19.90;99.90
12911;DHT22;6523;49.758;6.120;2023-06-22T00:56:57;19.80;99.90
12911;DHT22;6523;49.758;6.120;2023-06-22T00:59:23;19.70;99.90
12911;DHT22;6523;49.758;6.120;2023-06-22T01:01:49;19.70;99.90
12911;DHT22;6523;49.758;6.120;2023-06-22T01:04:15;19.60;99.90
12911;DHT22;6523;49.758;6.120;2023-06-22T01:09:33;19.60;99.90
12911;DHT22;6523;49.758;6.120;2023-06-22T01:12:04;19.60;99.90
12911;DHT22;6523;49.758;6.120;2023-06-22T01:14:38;19.60;99.90
12911;DHT22;6523;49.758;6.120;2023-06-22T01:17:07;19.70;99.90
12911;DHT22;6523;49.758;6.120;2023-06-22T01:19:54;19.80;99.90
12911;DHT22;6523;49.758;6.120;2023-06-22T01:22:24;19.90;99.90
12911;DHT22;6523;49.758;6.120;2023-06-22T01:25:20;19.80;99.90
12911;DHT22;6523;49.758;6.120;2023-06-22T01:27:56;19.70;99.90
12911;DHT22;6523;49.758;6.120;2023-06-22T01:30:27;19.60;99.90
12911;DHT22;6523;49.758;6.120;2023-06-22T01:32:54;19.60;99.90
12911;DHT22;6523;49.758;6.120;2023-06-22T01:35:21;19.60;99.90
12911;DHT22;6523;49.758;6.120;2023-06-22T01:37:47;19.70;99.90
12911;DHT22;6523;49.758;6.120;2023-06-22T01:40:13;19.70;99.90
12911;DHT22;6523;49.758;6.120;2023-06-22T01:42:40;19.70;99.90
12911;DHT22;6523;49.758;6.120;2023-06-22T01:45:07;19.60;99.90
12911;DHT22;6523;49.758;6.120;2023-06-22T01:47:34;19.50;99.90
12911;DHT22;6523;49.758;6.120;2023-06-22T01:49:59;19.40;99.90
12911;DHT22;6523;49.758;6.120;2023-06-22T01:52:25;19.40;99.90
12911;DHT22;6523;49.758;6.120;2023-06-22T01:54:51;19.40;99.90
12911;DHT22;6523;49.758;6.120;2023-06-22T01:57:16;19.40;99.90
12911;DHT22;6523;49.758;6.120;2023-06-22T02:00:16;19.30;99.90
12911;DHT22;6523;49.758;6.120;2023-06-22T02:02:53;19.40;99.90
12911;DHT22;6523;49.758;6.120;2023-06-22T02:05:19;19.40;99.90
12911;DHT22;6523;49.758;6.120;2023-06-22T02:08:07;19.50;99.90
12911;DHT22;6523;49.758;6.120;2023-06-22T02:10:35;19.30;99.90
12911;DHT22;6523;49.758;6.120;2023-06-22T02:13:05;19.30;99.90
12911;DHT22;6523;49.758;6.120;2023-06-22T02:15:31;19.30;99.90
12911;DHT22;6523;49.758;6.120;2023-06-22T02:17:57;19.20;99.90
12911;DHT22;6523;49.758;6.120;2023-06-22T02:20:24;19.30;99.90
12911;DHT22;6523;49.758;6.120;2023-06-22T02:22:49;19.30;99.90
12911;DHT22;6523;49.758;6.120;2023-06-22T02:25:15;19.30;99.90
12911;DHT22;6523;49.758;6.120;2023-06-22T02:27:40;19.30;99.90
12911;DHT22;6523;49.758;6.120;2023-06-22T02:30:09;19.20;99.90
12911;DHT22;6523;49.758;6.120;2023-06-22T02:32:35;19.20;99.90
12911;DHT22;6523;49.758;6.120;2023-06-22T02:35:01;19.20;99.90
12911;DHT22;6523;49.758;6.120;2023-06-22T02:37:31;19.10;99.90
12911;DHT22;6523;49.758;6.120;2023-06-22T02:39:57;19.10;99.90
12911;DHT22;6523;49.758;6.120;2023-06-22T02:42:22;19.00;99.90
12911;DHT22;6523;49.758;6.120;2023-06-22T02:44:48;19.00;99.90
12911;DHT22;6523;49.758;6.120;2023-06-22T02:47:13;18.90;99.90
12911;DHT22;6523;49.758;6.120;2023-06-22T02:49:39;18.90;99.90
12911;DHT22;6523;49.758;6.120;2023-06-22T02:52:05;18.90;99.90
12911;DHT22;6523;49.758;6.120;2023-06-22T02:54:31;18.90;99.90
12911;DHT22;6523;49.758;6.120;2023-06-22T02:56:56;18.90;99.90
12911;DHT22;6523;49.758;6.120;2023-06-22T02:59:22;18.80;99.90
12911;DHT22;6523;49.758;6.120;2023-06-22T03:01:49;18.80;99.90
12911;DHT22;6523;49.758;6.120;2023-06-22T03:04:15;18.70;99.90
12911;DHT22;6523;49.758;6.120;2023-06-22T03:06:41;18.70;99.90
12911;DHT22;6523;49.758;6.120;2023-06-22T03:09:07;18.70;99.90
12911;DHT22;6523;49.758;6.120;2023-06-22T03:11:33;18.70;99.90
12911;DHT22;6523;49.758;6.120;2023-06-22T03:14:00;18.70;99.90
12911;DHT22;6523;49.758;6.120;2023-06-22T03:16:26;18.60;99.90
12911;DHT22;6523;49.758;6.120;2023-06-22T03:18:52;18.60;99.90
12911;DHT22;6523;49.758;6.120;2023-06-22T03:21:22;18.70;99.90
12911;DHT22;6523;49.758;6.120;2023-06-22T03:23:48;18.70;99.90
12911;DHT22;6523;49.758;6.120;2023-06-22T03:26:18;18.80;99.90
12911;DHT22;6523;49.758;6.120;2023-06-22T03:28:43;18.80;99.90
12911;DHT22;6523;49.758;6.120;2023-06-22T03:31:09;18.90;99.90
12911;DHT22;6523;49.758;6.120;2023-06-22T03:33:35;18.90;99.90
12911;DHT22;6523;49.758;6.120;2023-06-22T03:36:00;18.80;99.90
12911;DHT22;6523;49.758;6.120;2023-06-22T03:38:26;18.90;99.90
12911;DHT22;6523;49.758;6.120;2023-06-22T03:40:51;18.90;99.90
12911;DHT22;6523;49.758;6.120;2023-06-22T03:43:17;18.80;99.90
12911;DHT22;6523;49.758;6.120;2023-06-22T03:45:42;18.90;99.90
12911;DHT22;6523;49.758;6.120;2023-06-22T03:48:11;18.90;99.90
12911;DHT22;6523;49.758;6.120;2023-06-22T03:50:36;18.90;99.90
12911;DHT22;6523;49.758;6.120;2023-06-22T03:53:02;18.90;99.90
12911;DHT22;6523;49.758;6.120;2023-06-22T03:55:27;19.00;99.90
12911;DHT22;6523;49.758;6.120;2023-06-22T03:57:53;18.80;99.90
12911;DHT22;6523;49.758;6.120;2023-06-22T04:00:25;18.80;99.90
12911;DHT22;6523;49.758;6.120;2023-06-22T04:02:50;18.90;99.90
12911;DHT22;6523;49.758;6.120;2023-06-22T04:05:16;19.00;99.90
12911;DHT22;6523;49.758;6.120;2023-06-22T04:07:44;19.00;99.90
12911;DHT22;6523;49.758;6.120;2023-06-22T04:10:10;19.10;99.90
12911;DHT22;6523;49.758;6.120;2023-06-22T04:12:35;19.00;99.90
12911;DHT22;6523;49.758;6.120;2023-06-22T04:15:01;19.10;99.90
12911;DHT22;6523;49.758;6.120;2023-06-22T04:17:27;19.00;99.90
12911;DHT22;6523;49.758;6.120;2023-06-22T04:19:52;19.00;99.90
12911;DHT22;6523;49.758;6.120;2023-06-22T04:22:18;19.00;99.90
12911;DHT22;6523;49.758;6.120;2023-06-22T04:24:44;19.10;99.90
12911;DHT22;6523;49.758;6.120;2023-06-22T04:27:10;19.10;99.90
12911;DHT22;6523;49.758;6.120;2023-06-22T04:29:35;19.20;99.90
12911;DHT22;6523;49.758;6.120;2023-06-22T04:32:01;19.20;99.90
12911;DHT22;6523;49.758;6.120;2023-06-22T04:34:30;19.10;99.90
12911;DHT22;6523;49.758;6.120;2023-06-22T04:36:56;19.10;99.90
12911;DHT22;6523;49.758;6.120;2023-06-22T04:39:21;19.10;99.90
12911;DHT22;6523;49.758;6.120;2023-06-22T04:41:47;19.00;99.90
12911;DHT22;6523;49.758;6.120;2023-06-22T04:44:14;19.00;99.90
12911;DHT22;6523;49.758;6.120;2023-06-22T04:46:49;18.90;99.90
12911;DHT22;6523;49.758;6.120;2023-06-22T04:49:20;18.80;99.90
12911;DHT22;6523;49.758;6.120;2023-06-22T04:51:45;18.90;99.90
12911;DHT22;6523;49.758;6.120;2023-06-22T04:54:11;18.90;99.90
12911;DHT22;6523;49.758;6.120;2023-06-22T04:56:37;18.90;99.90
12911;DHT22;6523;49.758;6.120;2023-06-22T04:59:02;19.00;99.90
12911;DHT22;6523;49.758;6.120;2023-06-22T05:01:28;19.10;99.90
12911;DHT22;6523;49.758;6.120;2023-06-22T05:03:56;19.20;99.90
12911;DHT22;6523;49.758;6.120;2023-06-22T05:06:23;19.20;99.90
12911;DHT22;6523;49.758;6.120;2023-06-22T05:08:52;19.30;99.90
12911;DHT22;6523;49.758;6.120;2023-06-22T05:11:17;19.30;99.90
12911;DHT22;6523;49.758;6.120;2023-06-22T05:13:43;19.30;99.90
12911;DHT22;6523;49.758;6.120;2023-06-22T05:16:08;19.30;99.90
12911;DHT22;6523;49.758;6.120;2023-06-22T05:18:34;19.30;99.90
12911;DHT22;6523;49.758;6.120;2023-06-22T05:21:00;19.30;99.90
12911;DHT22;6523;49.758;6.120;2023-06-22T05:23:25;19.20;99.90
12911;DHT22;6523;49.758;6.120;2023-06-22T05:25:51;19.20;99.90
12911;DHT22;6523;49.758;6.120;2023-06-22T05:28:17;19.20;99.90
12911;DHT22;6523;49.758;6.120;2023-06-22T05:30:48;19.40;99.90
12911;DHT22;6523;49.758;6.120;2023-06-22T05:33:13;19.50;99.90
12911;DHT22;6523;49.758;6.120;2023-06-22T05:35:39;19.50;99.90
12911;DHT22;6523;49.758;6.120;2023-06-22T05:38:04;19.50;99.90
12911;DHT22;6523;49.758;6.120;2023-06-22T05:40:30;19.60;99.90
12911;DHT22;6523;49.758;6.120;2023-06-22T05:42:55;19.70;99.90
12911;DHT22;6523;49.758;6.120;2023-06-22T05:45:21;19.80;99.90
12911;DHT22;6523;49.758;6.120;2023-06-22T05:47:46;19.80;99.90
12911;DHT22;6523;49.758;6.120;2023-06-22T05:50:12;19.90;99.90
12911;DHT22;6523;49.758;6.120;2023-06-22T05:52:37;20.00;99.90
12911;DHT22;6523;49.758;6.120;2023-06-22T05:55:03;20.10;99.90
12911;DHT22;6523;49.758;6.120;2023-06-22T05:57:29;20.20;99.90
12911;DHT22;6523;49.758;6.120;2023-06-22T05:59:54;20.30;99.90
12911;DHT22;6523;49.758;6.120;2023-06-22T06:02:20;20.20;99.90
12911;DHT22;6523;49.758;6.120;2023-06-22T06:04:45;20.00;99.90
12911;DHT22;6523;49.758;6.120;2023-06-22T06:07:11;20.10;99.90
12911;DHT22;6523;49.758;6.120;2023-06-22T06:09:36;20.00;99.90
12911;DHT22;6523;49.758;6.120;2023-06-22T06:12:02;20.00;99.90
12911;DHT22;6523;49.758;6.120;2023-06-22T06:14:28;20.10;99.90
12911;DHT22;6523;49.758;6.120;2023-06-22T06:16:54;20.20;99.90
12911;DHT22;6523;49.758;6.120;2023-06-22T06:19:19;20.30;99.90
12911;DHT22;6523;49.758;6.120;2023-06-22T06:21:45;20.40;99.90
12911;DHT22;6523;49.758;6.120;2023-06-22T06:24:12;20.60;99.90
12911;DHT22;6523;49.758;6.120;2023-06-22T06:26:37;20.80;99.90
12911;DHT22;6523;49.758;6.120;2023-06-22T06:29:03;21.00;99.90
12911;DHT22;6523;49.758;6.120;2023-06-22T06:31:28;21.30;99.90
12911;DHT22;6523;49.758;6.120;2023-06-22T06:33:54;21.50;99.90
12911;DHT22;6523;49.758;6.120;2023-06-22T06:36:20;21.60;99.90
12911;DHT22;6523;49.758;6.120;2023-06-22T06:38:46;21.50;99.90
12911;DHT22;6523;49.758;6.120;2023-06-22T06:41:16;21.40;99.90
12911;DHT22;6523;49.758;6.120;2023-06-22T06:43:42;21.40;99.90
12911;DHT22;6523;49.758;6.120;2023-06-22T06:46:10;21.40;99.90
12911;DHT22;6523;49.758;6.120;2023-06-22T06:48:36;21.40;99.90
12911;DHT22;6523;49.758;6.120;2023-06-22T06:51:02;21.50;99.90
12911;DHT22;6523;49.758;6.120;2023-06-22T06:53:27;21.60;99.90
12911;DHT22;6523;49.758;6.120;2023-06-22T06:55:54;21.70;99.90
12911;DHT22;6523;49.758;6.120;2023-06-22T06:58:19;21.70;99.90
12911;DHT22;6523;49.758;6.120;2023-06-22T07:00:45;21.80;99.90
12911;DHT22;6523;49.758;6.120;2023-06-22T07:03:11;21.80;99.90
12911;DHT22;6523;49.758;6.120;2023-06-22T07:05:36;21.90;99.90
12911;DHT22;6523;49.758;6.120;2023-06-22T07:08:02;22.00;99.90
12911;DHT22;6523;49.758;6.120;2023-06-22T07:10:29;22.10;99.90
12911;DHT22;6523;49.758;6.120;2023-06-22T07:12:54;22.30;99.90
12911;DHT22;6523;49.758;6.120;2023-06-22T07:15:20;22.10;99.90
12911;DHT22;6523;49.758;6.120;2023-06-22T07:17:46;22.00;99.90
12911;DHT22;6523;49.758;6.120;2023-06-22T07:20:11;22.20;99.90
12911;DHT22;6523;49.758;6.120;2023-06-22T07:22:44;22.40;99.90
12911;DHT22;6523;49.758;6.120;2023-06-22T07:25:10;22.50;99.90
12911;DHT22;6523;49.758;6.120;2023-06-22T07:27:43;22.50;99.90
12911;DHT22;6523;49.758;6.120;2023-06-22T07:30:10;22.60;99.90
12911;DHT22;6523;49.758;6.120;2023-06-22T07:32:36;22.60;99.90
12911;DHT22;6523;49.758;6.120;2023-06-22T07:35:02;22.80;99.90
12911;DHT22;6523;49.758;6.120;2023-06-22T07:37:28;22.90;99.90
12911;DHT22;6523;49.758;6.120;2023-06-22T07:39:54;23.00;99.90
12911;DHT22;6523;49.758;6.120;2023-06-22T07:42:24;23.10;99.90
12911;DHT22;6523;49.758;6.120;2023-06-22T07:44:50;23.30;99.90
12911;DHT22;6523;49.758;6.120;2023-06-22T07:47:16;23.40;99.90
12911;DHT22;6523;49.758;6.120;2023-06-22T07:49:45;23.30;99.90
12911;DHT22;6523;49.758;6.120;2023-06-22T07:52:10;23.10;99.90
12911;DHT22;6523;49.758;6.120;2023-06-22T07:54:36;23.00;99.90
12911;DHT22;6523;49.758;6.120;2023-06-22T07:57:02;22.90;99.90
12911;DHT22;6523;49.758;6.120;2023-06-22T07:59:28;22.90;99.90
12911;DHT22;6523;49.758;6.120;2023-06-22T08:01:54;22.90;99.90
12911;DHT22;6523;49.758;6.120;2023-06-22T08:04:20;22.90;99.90
12911;DHT22;6523;49.758;6.120;2023-06-22T08:06:45;22.70;99.90
12911;DHT22;6523;49.758;6.120;2023-06-22T08:09:11;22.60;99.90
12911;DHT22;6523;49.758;6.120;2023-06-22T08:11:37;22.60;99.90
12911;DHT22;6523;49.758;6.120;2023-06-22T08:14:03;22.60;99.90
12911;DHT22;6523;49.758;6.120;2023-06-22T08:16:28;22.70;99.90
12911;DHT22;6523;49.758;6.120;2023-06-22T08:18:54;22.60;99.90
12911;DHT22;6523;49.758;6.120;2023-06-22T08:21:20;22.40;99.90
12911;DHT22;6523;49.758;6.120;2023-06-22T08:23:45;22.30;99.90
12911;DHT22;6523;49.758;6.120;2023-06-22T08:26:11;22.30;99.90
12911;DHT22;6523;49.758;6.120;2023-06-22T08:28:36;22.30;99.90
12911;DHT22;6523;49.758;6.120;2023-06-22T08:31:02;22.30;99.90
12911;DHT22;6523;49.758;6.120;2023-06-22T08:33:28;22.20;99.90
12911;DHT22;6523;49.758;6.120;2023-06-22T08:35:55;22.20;99.90
12911;DHT22;6523;49.758;6.120;2023-06-22T08:38:21;22.20;99.90
12911;DHT22;6523;49.758;6.120;2023-06-22T08:40:47;22.20;99.90
12911;DHT22;6523;49.758;6.120;2023-06-22T08:43:12;22.10;99.90
12911;DHT22;6523;49.758;6.120;2023-06-22T08:45:38;22.00;99.90
12911;DHT22;6523;49.758;6.120;2023-06-22T08:48:03;21.90;99.90
12911;DHT22;6523;49.758;6.120;2023-06-22T08:50:29;21.80;99.90
12911;DHT22;6523;49.758;6.120;2023-06-22T08:52:54;21.70;99.90
12911;DHT22;6523;49.758;6.120;2023-06-22T08:55:20;21.70;99.90
12911;DHT22;6523;49.758;6.120;2023-06-22T08:57:45;21.60;99.90
12911;DHT22;6523;49.758;6.120;2023-06-22T09:00:11;21.60;99.90
12911;DHT22;6523;49.758;6.120;2023-06-22T09:02:46;21.60;99.90
12911;DHT22;6523;49.758;6.120;2023-06-22T09:05:12;21.50;99.90
12911;DHT22;6523;49.758;6.120;2023-06-22T09:07:38;21.40;99.90
12911;DHT22;6523;49.758;6.120;2023-06-22T09:10:04;21.50;99.90
12911;DHT22;6523;49.758;6.120;2023-06-22T09:12:30;21.80;99.90
12911;DHT22;6523;49.758;6.120;2023-06-22T09:14:58;22.00;99.90
12911;DHT22;6523;49.758;6.120;2023-06-22T09:17:25;22.30;99.90
12911;DHT22;6523;49.758;6.120;2023-06-22T09:19:51;22.20;99.90
12911;DHT22;6523;49.758;6.120;2023-06-22T09:22:16;22.10;99.90
12911;DHT22;6523;49.758;6.120;2023-06-22T09:24:42;22.00;99.90
12911;DHT22;6523;49.758;6.120;2023-06-22T09:27:08;21.90;99.90
12911;DHT22;6523;49.758;6.120;2023-06-22T09:29:33;21.90;99.90
12911;DHT22;6523;49.758;6.120;2023-06-22T09:31:59;21.70;99.90
12911;DHT22;6523;49.758;6.120;2023-06-22T09:34:25;21.60;99.90
12911;DHT22;6523;49.758;6.120;2023-06-22T09:36:50;21.60;99.90
12911;DHT22;6523;49.758;6.120;2023-06-22T09:39:18;21.50;99.90
12911;DHT22;6523;49.758;6.120;2023-06-22T09:41:43;21.60;99.90
12911;DHT22;6523;49.758;6.120;2023-06-22T09:44:09;21.80;99.90
12911;DHT22;6523;49.758;6.120;2023-06-22T09:46:34;21.90;99.90
12911;DHT22;6523;49.758;6.120;2023-06-22T09:49:00;21.80;99.90
12911;DHT22;6523;49.758;6.120;2023-06-22T09:51:26;21.80;99.90
12911;DHT22;6523;49.758;6.120;2023-06-22T09:53:52;22.00;99.90
12911;DHT22;6523;49.758;6.120;2023-06-22T09:56:19;22.70;99.90
12911;DHT22;6523;49.758;6.120;2023-06-22T09:58:45;23.20;99.90
12911;DHT22;6523;49.758;6.120;2023-06-22T10:01:12;24.10;99.90
12911;DHT22;6523;49.758;6.120;2023-06-22T10:03:40;24.60;99.90
12911;DHT22;6523;49.758;6.120;2023-06-22T10:06:07;24.80;99.90
12911;DHT22;6523;49.758;6.120;2023-06-22T10:08:32;25.00;99.90
12911;DHT22;6523;49.758;6.120;2023-06-22T10:10:58;24.90;99.90
12911;DHT22;6523;49.758;6.120;2023-06-22T10:13:23;25.30;99.90
12911;DHT22;6523;49.758;6.120;2023-06-22T10:15:49;25.50;99.90
12911;DHT22;6523;49.758;6.120;2023-06-22T10:18:17;25.50;99.90
12911;DHT22;6523;49.758;6.120;2023-06-22T10:20:43;26.10;99.90
12911;DHT22;6523;49.758;6.120;2023-06-22T10:23:09;25.80;99.90
12911;DHT22;6523;49.758;6.120;2023-06-22T10:25:34;25.80;99.90
12911;DHT22;6523;49.758;6.120;2023-06-22T10:28:00;25.80;99.90
12911;DHT22;6523;49.758;6.120;2023-06-22T10:30:25;26.20;99.90
12911;DHT22;6523;49.758;6.120;2023-06-22T10:32:51;25.60;99.90
12911;DHT22;6523;49.758;6.120;2023-06-22T10:35:16;25.50;99.90
12911;DHT22;6523;49.758;6.120;2023-06-22T10:37:43;25.50;99.90
12911;DHT22;6523;49.758;6.120;2023-06-22T10:40:10;25.10;99.90
12911;DHT22;6523;49.758;6.120;2023-06-22T10:42:35;24.60;99.90
12911;DHT22;6523;49.758;6.120;2023-06-22T10:45:01;24.40;99.90
12911;DHT22;6523;49.758;6.120;2023-06-22T10:47:26;24.90;99.90
12911;DHT22;6523;49.758;6.120;2023-06-22T10:49:52;25.40;99.90
12911;DHT22;6523;49.758;6.120;2023-06-22T10:52:18;25.70;99.90
12911;DHT22;6523;49.758;6.120;2023-06-22T10:54:43;25.90;99.90
12911;DHT22;6523;49.758;6.120;2023-06-22T10:57:09;26.00;99.90
12911;DHT22;6523;49.758;6.120;2023-06-22T10:59:34;25.90;99.90
12911;DHT22;6523;49.758;6.120;2023-06-22T11:02:00;25.40;99.90
12911;DHT22;6523;49.758;6.120;2023-06-22T11:04:26;25.20;99.90
12911;DHT22;6523;49.758;6.120;2023-06-22T11:06:51;25.60;99.90
12911;DHT22;6523;49.758;6.120;2023-06-22T11:09:17;26.10;99.90
12911;DHT22;6523;49.758;6.120;2023-06-22T11:11:51;26.20;99.90
12911;DHT22;6523;49.758;6.120;2023-06-22T11:14:18;26.70;99.90
12911;DHT22;6523;49.758;6.120;2023-06-22T11:16:44;26.30;99.90
12911;DHT22;6523;49.758;6.120;2023-06-22T11:19:11;26.60;99.90
12911;DHT22;6523;49.758;6.120;2023-06-22T11:21:37;26.80;99.90
12911;DHT22;6523;49.758;6.120;2023-06-22T11:24:03;27.60;99.90
12911;DHT22;6523;49.758;6.120;2023-06-22T11:26:28;27.60;99.90
12911;DHT22;6523;49.758;6.120;2023-06-22T11:28:54;27.60;99.90
12911;DHT22;6523;49.758;6.120;2023-06-22T11:31:20;27.70;99.90
12911;DHT22;6523;49.758;6.120;2023-06-22T11:33:45;27.30;99.90
12911;DHT22;6523;49.758;6.120;2023-06-22T11:36:12;27.00;99.90
12911;DHT22;6523;49.758;6.120;2023-06-22T11:38:38;26.90;99.90
12911;DHT22;6523;49.758;6.120;2023-06-22T11:41:09;26.70;99.90
12911;DHT22;6523;49.758;6.120;2023-06-22T11:43:35;27.40;99.90
12911;DHT22;6523;49.758;6.120;2023-06-22T11:46:02;27.40;99.90
12911;DHT22;6523;49.758;6.120;2023-06-22T11:48:28;27.20;99.90
12911;DHT22;6523;49.758;6.120;2023-06-22T11:50:54;27.50;99.90
12911;DHT22;6523;49.758;6.120;2023-06-22T11:53:21;28.10;99.90
12911;DHT22;6523;49.758;6.120;2023-06-22T11:55:47;28.70;99.90
12911;DHT22;6523;49.758;6.120;2023-06-22T11:58:14;28.60;99.90
12911;DHT22;6523;49.758;6.120;2023-06-22T12:00:40;28.40;99.90
12911;DHT22;6523;49.758;6.120;2023-06-22T12:03:07;28.00;99.90
12911;DHT22;6523;49.758;6.120;2023-06-22T12:05:33;27.70;99.90
12911;DHT22;6523;49.758;6.120;2023-06-22T12:07:58;28.20;99.90
12911;DHT22;6523;49.758;6.120;2023-06-22T12:10:25;28.10;99.90
12911;DHT22;6523;49.758;6.120;2023-06-22T12:12:51;28.40;99.90
12911;DHT22;6523;49.758;6.120;2023-06-22T12:15:16;28.10;99.90
12911;DHT22;6523;49.758;6.120;2023-06-22T12:17:42;27.90;99.90
12911;DHT22;6523;49.758;6.120;2023-06-22T12:20:08;28.10;99.90
12911;DHT22;6523;49.758;6.120;2023-06-22T12:22:34;27.80;99.90
12911;DHT22;6523;49.758;6.120;2023-06-22T12:25:00;28.30;99.90
12911;DHT22;6523;49.758;6.120;2023-06-22T12:27:25;28.60;99.90
12911;DHT22;6523;49.758;6.120;2023-06-22T12:29:51;28.60;99.90
12911;DHT22;6523;49.758;6.120;2023-06-22T12:32:17;29.30;99.90
12911;DHT22;6523;49.758;6.120;2023-06-22T12:34:43;29.40;99.90
12911;DHT22;6523;49.758;6.120;2023-06-22T12:37:09;28.80;99.90
12911;DHT22;6523;49.758;6.120;2023-06-22T12:39:35;28.80;99.90
12911;DHT22;6523;49.758;6.120;2023-06-22T12:42:00;28.60;99.90
12911;DHT22;6523;49.758;6.120;2023-06-22T12:44:26;28.60;99.90
12911;DHT22;6523;49.758;6.120;2023-06-22T12:46:51;28.90;99.90
12911;DHT22;6523;49.758;6.120;2023-06-22T12:49:17;29.30;99.90
12911;DHT22;6523;49.758;6.120;2023-06-22T12:51:44;29.00;99.90
12911;DHT22;6523;49.758;6.120;2023-06-22T12:54:10;28.20;99.90
12911;DHT22;6523;49.758;6.120;2023-06-22T12:56:36;27.70;99.90
12911;DHT22;6523;49.758;6.120;2023-06-22T12:59:06;27.50;99.90
12911;DHT22;6523;49.758;6.120;2023-06-22T13:01:32;27.30;99.90
12911;DHT22;6523;49.758;6.120;2023-06-22T13:03:58;27.00;99.90
12911;DHT22;6523;49.758;6.120;2023-06-22T13:06:23;26.70;99.90
12911;DHT22;6523;49.758;6.120;2023-06-22T13:08:49;26.50;99.90
12911;DHT22;6523;49.758;6.120;2023-06-22T13:11:15;26.50;99.90
12911;DHT22;6523;49.758;6.120;2023-06-22T13:13:40;26.20;99.90
12911;DHT22;6523;49.758;6.120;2023-06-22T13:16:07;26.30;99.90
12911;DHT22;6523;49.758;6.120;2023-06-22T13:18:32;26.20;99.90
12911;DHT22;6523;49.758;6.120;2023-06-22T13:20:59;25.90;99.90
12911;DHT22;6523;49.758;6.120;2023-06-22T13:23:25;25.90;99.90
12911;DHT22;6523;49.758;6.120;2023-06-22T13:25:51;25.70;99.90
12911;DHT22;6523;49.758;6.120;2023-06-22T13:28:16;25.30;99.90
12911;DHT22;6523;49.758;6.120;2023-06-22T13:30:42;25.10;99.90
12911;DHT22;6523;49.758;6.120;2023-06-22T13:33:10;24.80;99.90
12911;DHT22;6523;49.758;6.120;2023-06-22T13:35:36;24.90;99.90
12911;DHT22;6523;49.758;6.120;2023-06-22T13:38:03;24.50;99.90
12911;DHT22;6523;49.758;6.120;2023-06-22T13:40:28;24.30;99.90
12911;DHT22;6523;49.758;6.120;2023-06-22T13:42:55;24.00;99.90
12911;DHT22;6523;49.758;6.120;2023-06-22T13:45:20;23.90;99.90
12911;DHT22;6523;49.758;6.120;2023-06-22T13:47:46;23.80;99.90
12911;DHT22;6523;49.758;6.120;2023-06-22T13:50:12;23.80;99.90
12911;DHT22;6523;49.758;6.120;2023-06-22T13:52:38;23.60;99.90
12911;DHT22;6523;49.758;6.120;2023-06-22T13:55:05;23.40;99.90
12911;DHT22;6523;49.758;6.120;2023-06-22T13:57:32;23.30;99.90
12911;DHT22;6523;49.758;6.120;2023-06-22T13:59:58;23.30;99.90
12911;DHT22;6523;49.758;6.120;2023-06-22T14:02:23;23.50;99.90
12911;DHT22;6523;49.758;6.120;2023-06-22T14:04:49;23.50;99.90
12911;DHT22;6523;49.758;6.120;2023-06-22T14:07:14;23.40;99.90
12911;DHT22;6523;49.758;6.120;2023-06-22T14:09:40;23.40;99.90
12911;DHT22;6523;49.758;6.120;2023-06-22T14:12:06;23.20;99.90
12911;DHT22;6523;49.758;6.120;2023-06-22T14:14:33;22.90;99.90
12911;DHT22;6523;49.758;6.120;2023-06-22T14:16:59;22.70;99.90
12911;DHT22;6523;49.758;6.120;2023-06-22T14:19:25;22.70;99.90
12911;DHT22;6523;49.758;6.120;2023-06-22T14:21:50;22.80;99.90
12911;DHT22;6523;49.758;6.120;2023-06-22T14:24:16;23.10;99.90
12911;DHT22;6523;49.758;6.120;2023-06-22T14:26:41;23.30;99.90
12911;DHT22;6523;49.758;6.120;2023-06-22T14:29:07;23.20;99.90
12911;DHT22;6523;49.758;6.120;2023-06-22T14:31:32;23.40;99.90
12911;DHT22;6523;49.758;6.120;2023-06-22T14:33:58;23.60;99.90
12911;DHT22;6523;49.758;6.120;2023-06-22T14:36:24;23.90;99.90
12911;DHT22;6523;49.758;6.120;2023-06-22T14:38:49;24.00;99.90
12911;DHT22;6523;49.758;6.120;2023-06-22T14:41:15;24.20;99.90
12911;DHT22;6523;49.758;6.120;2023-06-22T14:43:50;24.10;99.90
12911;DHT22;6523;49.758;6.120;2023-06-22T14:46:17;24.00;99.90
12911;DHT22;6523;49.758;6.120;2023-06-22T14:48:43;24.20;99.90
12911;DHT22;6523;49.758;6.120;2023-06-22T14:51:10;24.80;99.90
12911;DHT22;6523;49.758;6.120;2023-06-22T14:53:36;24.30;99.90
12911;DHT22;6523;49.758;6.120;2023-06-22T14:56:02;24.40;99.90
12911;DHT22;6523;49.758;6.120;2023-06-22T14:58:30;24.00;99.90
12911;DHT22;6523;49.758;6.120;2023-06-22T15:01:01;23.80;99.90
12911;DHT22;6523;49.758;6.120;2023-06-22T15:03:27;24.10;99.90
12911;DHT22;6523;49.758;6.120;2023-06-22T15:05:54;24.60;99.90
12911;DHT22;6523;49.758;6.120;2023-06-22T15:08:20;24.60;99.90
12911;DHT22;6523;49.758;6.120;2023-06-22T15:10:46;24.80;99.90
12911;DHT22;6523;49.758;6.120;2023-06-22T15:13:11;25.20;99.90
12911;DHT22;6523;49.758;6.120;2023-06-22T15:15:37;25.10;99.90
12911;DHT22;6523;49.758;6.120;2023-06-22T15:18:03;24.90;99.90
12911;DHT22;6523;49.758;6.120;2023-06-22T15:20:28;25.00;99.90
12911;DHT22;6523;49.758;6.120;2023-06-22T15:22:54;25.30;99.90
12911;DHT22;6523;49.758;6.120;2023-06-22T15:25:20;25.00;99.90
12911;DHT22;6523;49.758;6.120;2023-06-22T15:27:45;24.50;99.90
12911;DHT22;6523;49.758;6.120;2023-06-22T15:30:11;25.00;99.90
12911;DHT22;6523;49.758;6.120;2023-06-22T15:32:37;26.00;99.90
12911;DHT22;6523;49.758;6.120;2023-06-22T15:35:02;25.30;99.90
12911;DHT22;6523;49.758;6.120;2023-06-22T15:37:29;24.80;99.90
12911;DHT22;6523;49.758;6.120;2023-06-22T15:39:54;24.50;99.90
12911;DHT22;6523;49.758;6.120;2023-06-22T15:42:21;24.20;99.90